createdAt,value
2022-12-03T00:02:27.767Z,-1.42
2022-12-03T00:04:56.260Z,-1.70
2022-12-03T00:07:24.393Z,-1.52
2022-12-03T00:09:53.828Z,-1.69
2022-12-03T00:12:22.034Z,-1.90
2022-12-03T00:14:50.040Z,-1.72
2022-12-03T00:17:18.107Z,-1.86
2022-12-03T00:19:46.358Z,-1.61
2022-12-03T00:22:14.399Z,-1.83
2022-12-03T00:24:42.342Z,-1.94
2022-12-03T00:27:11.971Z,-2.08
2022-12-03T00:29:45.942Z,-2.01
2022-12-03T00:32:14.313Z,-2.12
2022-12-03T00:34:42.327Z,-1.76
2022-12-03T00:37:10.503Z,-1.77
2022-12-03T00:39:38.671Z,-2.22
2022-12-03T00:42:07.044Z,-1.62
2022-12-03T00:44:36.497Z,-1.78
2022-12-03T00:47:04.854Z,-1.65
2022-12-03T00:49:33.420Z,-1.86
2022-12-03T00:52:01.369Z,-1.63
2022-12-03T00:54:32.168Z,-2.10
2022-12-03T00:57:00.701Z,-1.67
2022-12-03T00:59:28.668Z,-1.64
2022-12-03T01:01:59.077Z,-1.85
2022-12-03T01:04:27.476Z,-1.79
2022-12-03T01:06:55.928Z,-1.65
2022-12-03T01:09:24.331Z,-2.20
2022-12-03T01:11:52.274Z,-1.72
2022-12-03T01:14:21.538Z,-1.94
2022-12-03T01:16:50.345Z,-2.13
2022-12-03T01:19:20.313Z,-2.12
2022-12-03T01:21:50.462Z,-1.96
2022-12-03T01:24:19.397Z,-2.52
2022-12-03T01:26:47.420Z,-1.99
2022-12-03T01:29:15.699Z,-1.91
2022-12-03T01:32:01.618Z,-2.36
2022-12-03T01:34:31.114Z,-2.36
2022-12-03T01:36:59.456Z,-2.09
2022-12-03T01:39:27.629Z,-2.11
2022-12-03T01:41:56.357Z,-2.48
2022-12-03T01:44:41.062Z,-2.31
2022-12-03T01:47:14.929Z,-2.26
2022-12-03T01:49:47.909Z,-2.34
2022-12-03T01:52:38.315Z,-2.23
2022-12-03T01:55:12.748Z,-2.38
2022-12-03T01:57:54.846Z,-2.07
2022-12-03T02:00:24.636Z,-1.97
2022-12-03T02:02:55.692Z,-2.08
2022-12-03T02:05:43.194Z,-1.88
2022-12-03T02:08:31.662Z,-2.15
2022-12-03T02:11:02.654Z,-2.10
2022-12-03T02:13:30.862Z,-2.04
2022-12-03T02:15:59.748Z,-2.24
2022-12-03T02:18:28.010Z,-2.05
2022-12-03T02:21:07.506Z,-2.15
2022-12-03T02:23:47.851Z,-2.34
2022-12-03T02:26:17.388Z,-2.78
2022-12-03T02:28:45.705Z,-2.79
2022-12-03T02:31:14.127Z,-2.42
2022-12-03T02:33:42.363Z,-2.98
2022-12-03T02:36:11.189Z,-3.20
2022-12-03T02:38:40.323Z,-2.81
2022-12-03T02:41:11.506Z,-2.96
2022-12-03T02:43:40.059Z,-3.31
2022-12-03T02:46:09.480Z,-3.09
2022-12-03T02:48:40.092Z,-3.24
2022-12-03T02:51:11.904Z,-3.02
2022-12-03T02:53:44.477Z,-3.54
2022-12-03T02:56:15.449Z,-3.49
2022-12-03T02:58:47.321Z,-3.90
2022-12-03T03:01:17.192Z,-3.83
2022-12-03T03:03:46.681Z,-3.86
2022-12-03T03:06:15.989Z,-3.99
2022-12-03T03:08:45.126Z,-4.28
2022-12-03T03:11:13.452Z,-4.07
2022-12-03T03:13:41.741Z,-4.10
2022-12-03T03:16:11.894Z,-4.50
2022-12-03T03:18:40.209Z,-4.22
2022-12-03T03:21:08.953Z,-3.93
2022-12-03T03:23:37.284Z,-4.08
2022-12-03T03:26:07.501Z,-3.77
2022-12-03T03:28:37.739Z,-4.13
2022-12-03T03:31:07.825Z,-4.17
2022-12-03T03:33:39.054Z,-3.96
2022-12-03T03:36:09.532Z,-3.89
2022-12-03T03:38:37.836Z,-3.81
2022-12-03T03:41:07.134Z,-4.01
2022-12-03T03:43:36.922Z,-3.35
2022-12-03T03:46:07.848Z,-3.41
2022-12-03T03:48:37.991Z,-3.65
2022-12-03T03:51:09.653Z,-3.59
2022-12-03T03:53:39.972Z,-3.58
2022-12-03T03:56:09.643Z,-3.50
2022-12-03T03:58:38.263Z,-3.28
2022-12-03T04:01:06.706Z,-3.77
2022-12-03T04:03:35.347Z,-3.99
2022-12-03T04:06:05.462Z,-4.26
2022-12-03T04:08:33.809Z,-3.77
2022-12-03T04:11:19.138Z,-3.64
2022-12-03T04:13:47.298Z,-3.91
2022-12-03T04:16:15.423Z,-4.23
2022-12-03T04:18:46.465Z,-3.98
2022-12-03T04:21:35.369Z,-3.81
2022-12-03T04:24:03.766Z,-4.18
2022-12-03T04:26:49.305Z,-3.88
2022-12-03T04:29:17.702Z,-4.29
2022-12-03T04:32:03.601Z,-3.80
2022-12-03T04:34:49.282Z,-3.83
2022-12-03T04:37:19.024Z,-4.09
2022-12-03T04:39:47.146Z,-3.73
2022-12-03T04:42:15.173Z,-3.41
2022-12-03T04:44:43.560Z,-3.80
2022-12-03T04:47:13.469Z,-3.36
2022-12-03T04:49:43.682Z,-3.45
2022-12-03T04:52:12.959Z,-3.40
2022-12-03T04:54:43.313Z,-3.45
2022-12-03T04:57:12.349Z,-3.43
2022-12-03T04:59:41.018Z,-3.22
2022-12-03T05:02:09.391Z,-3.21
2022-12-03T05:04:37.808Z,-2.92
2022-12-03T05:07:05.895Z,-3.28
2022-12-03T05:09:33.927Z,-2.92
2022-12-03T05:12:03.967Z,-3.25
2022-12-03T05:14:32.157Z,-2.96
2022-12-03T05:17:00.257Z,-3.15
2022-12-03T05:19:42.417Z,-2.81
2022-12-03T05:22:10.438Z,-2.98
2022-12-03T05:24:38.505Z,-2.64
2022-12-03T05:27:08.242Z,-2.66
2022-12-03T05:29:36.216Z,-2.59
2022-12-03T05:32:04.270Z,-3.12
2022-12-03T05:34:32.510Z,-3.27
2022-12-03T05:37:00.526Z,-2.67
2022-12-03T05:39:28.457Z,-3.02
2022-12-03T05:42:14.025Z,-2.53
2022-12-03T05:44:43.440Z,-2.69
2022-12-03T05:47:11.564Z,-2.57
2022-12-03T05:49:39.721Z,-2.89
2022-12-03T05:52:07.936Z,-3.17
2022-12-03T05:54:36.093Z,-2.64
2022-12-03T05:57:04.211Z,-2.73
2022-12-03T05:59:32.236Z,-2.90
2022-12-03T06:02:01.815Z,-2.70
2022-12-03T06:04:29.991Z,-3.09
2022-12-03T06:06:57.938Z,-2.52
2022-12-03T06:09:26.162Z,-2.70
2022-12-03T06:11:54.366Z,-2.56
2022-12-03T06:14:22.928Z,-2.70
2022-12-03T06:16:51.089Z,-2.42
2022-12-03T06:19:20.553Z,-2.64
2022-12-03T06:21:48.487Z,-2.99
2022-12-03T06:24:16.516Z,-2.82
2022-12-03T06:26:44.726Z,-2.60
2022-12-03T06:29:12.698Z,-2.53
2022-12-03T06:31:40.864Z,-2.42
2022-12-03T06:34:09.047Z,-2.82
2022-12-03T06:36:38.524Z,-2.40
2022-12-03T06:39:06.749Z,-2.49
2022-12-03T06:41:34.871Z,-2.20
2022-12-03T06:44:02.949Z,-2.62
2022-12-03T06:46:31.416Z,-2.60
2022-12-03T06:48:59.554Z,-2.56
2022-12-03T06:51:27.693Z,-2.97
2022-12-03T06:53:57.332Z,-2.50
2022-12-03T06:56:29.678Z,-2.60
2022-12-03T06:59:00.875Z,-3.10
2022-12-03T07:01:29.607Z,-2.36
2022-12-03T07:03:57.752Z,-2.75
2022-12-03T07:06:25.974Z,-2.53
2022-12-03T07:08:54.217Z,-2.59
2022-12-03T07:11:32.654Z,-2.95
2022-12-03T07:14:05.511Z,-2.37
2022-12-03T07:16:34.615Z,-2.68
2022-12-03T07:19:03.197Z,-2.76
2022-12-03T07:21:31.186Z,-2.51
2022-12-03T07:23:59.274Z,-2.50
2022-12-03T07:26:28.917Z,-2.69
2022-12-03T07:28:56.979Z,-2.60
2022-12-03T07:31:25.238Z,-2.50
2022-12-03T07:33:53.657Z,-2.62
2022-12-03T07:36:21.745Z,-2.68
2022-12-03T07:38:50.378Z,-2.20
2022-12-03T07:41:18.573Z,-2.27
2022-12-03T07:43:47.946Z,-2.46
2022-12-03T07:46:15.968Z,-2.56
2022-12-03T07:48:44.321Z,-2.69
2022-12-03T07:51:15.204Z,-2.89
2022-12-03T07:53:43.852Z,-2.88
2022-12-03T07:56:12.353Z,-2.67
2022-12-03T07:58:40.391Z,-2.69
2022-12-03T08:01:10.414Z,-2.25
2022-12-03T08:03:38.700Z,-2.12
2022-12-03T08:06:07.035Z,-2.24
2022-12-03T08:08:35.213Z,-2.40
2022-12-03T08:11:04.170Z,-2.18
2022-12-03T08:13:32.213Z,-2.07
2022-12-03T08:16:02.875Z,-2.35
2022-12-03T08:18:32.577Z,-2.41
2022-12-03T08:21:00.715Z,-2.32
2022-12-03T08:23:29.385Z,-2.13
2022-12-03T08:26:02.148Z,-2.23
2022-12-03T08:28:30.492Z,-2.00
2022-12-03T08:31:02.806Z,-2.01
2022-12-03T08:33:35.410Z,-2.14
2022-12-03T08:36:12.547Z,-2.34
2022-12-03T08:38:52.212Z,-1.83
2022-12-03T08:41:42.423Z,-2.20
2022-12-03T08:44:26.197Z,-2.04
2022-12-03T08:47:01.318Z,-2.15
2022-12-03T08:49:30.776Z,-1.91
2022-12-03T08:52:02.434Z,-1.73
2022-12-03T08:54:30.390Z,-2.09
2022-12-03T08:56:58.438Z,-1.86
2022-12-03T08:59:30.058Z,-1.93
2022-12-03T09:01:59.384Z,-1.91
2022-12-03T09:04:37.345Z,-1.97
2022-12-03T09:07:05.824Z,-2.04
2022-12-03T09:09:34.706Z,-1.91
2022-12-03T09:12:03.397Z,-1.98
2022-12-03T09:14:31.505Z,-1.82
2022-12-03T09:16:59.571Z,-1.77
2022-12-03T09:19:31.170Z,-2.01
2022-12-03T09:22:00.631Z,-2.09
2022-12-03T09:24:28.654Z,-1.70
2022-12-03T09:26:56.670Z,-1.59
2022-12-03T09:29:24.757Z,-1.60
2022-12-03T09:31:52.740Z,-1.64
2022-12-03T09:34:20.862Z,-1.61
2022-12-03T09:36:48.894Z,-1.75
2022-12-03T09:39:18.259Z,-1.59
2022-12-03T09:41:46.411Z,-1.69
2022-12-03T09:44:17.857Z,-1.70
2022-12-03T09:46:47.604Z,-1.75
2022-12-03T09:49:17.117Z,-1.70
2022-12-03T09:51:46.240Z,-1.83
2022-12-03T09:54:23.931Z,-1.69
2022-12-03T09:56:52.380Z,-1.57
2022-12-03T09:59:21.814Z,-1.45
2022-12-03T10:01:50.068Z,-1.39
2022-12-03T10:04:18.211Z,-1.54
2022-12-03T10:06:46.562Z,-1.55
2022-12-03T10:09:20.977Z,-1.46
2022-12-03T10:11:50.415Z,-1.37
2022-12-03T10:14:20.434Z,-1.47
2022-12-03T10:16:48.785Z,-1.39
2022-12-03T10:19:22.990Z,-1.49
2022-12-03T10:21:51.213Z,-1.61
2022-12-03T10:24:25.776Z,-1.34
2022-12-03T10:26:57.191Z,-1.37
2022-12-03T10:29:32.879Z,-1.23
2022-12-03T10:32:03.506Z,-1.27
2022-12-03T10:34:32.839Z,-1.46
2022-12-03T10:37:12.303Z,-1.54
2022-12-03T10:40:00.869Z,-1.44
2022-12-03T10:42:32.082Z,-1.46
2022-12-03T10:45:15.429Z,-1.30
2022-12-03T10:47:44.166Z,-1.22
2022-12-03T10:50:21.229Z,-1.40
2022-12-03T10:52:49.304Z,-1.33
2022-12-03T10:55:17.575Z,-1.26
2022-12-03T10:57:47.085Z,-1.30
2022-12-03T11:00:18.422Z,-1.34
2022-12-03T11:02:49.403Z,-1.27
2022-12-03T11:05:27.487Z,-1.17
2022-12-03T11:07:55.826Z,-1.23
2022-12-03T11:10:24.528Z,-1.15
2022-12-03T11:13:25.708Z,-1.38
2022-12-03T11:15:55.364Z,-1.30
2022-12-03T11:19:02.433Z,-1.19
2022-12-03T11:21:30.854Z,-1.27
2022-12-03T11:24:20.694Z,-1.32
2022-12-03T11:27:08.960Z,-1.27
2022-12-03T11:30:01.109Z,-1.33
2022-12-03T11:33:08.606Z,-1.36
2022-12-03T11:36:03.108Z,-1.24
2022-12-03T11:38:53.746Z,-1.29
2022-12-03T11:41:25.283Z,-1.43
2022-12-03T11:44:01.942Z,-1.41
2022-12-03T11:46:39.664Z,-1.59
2022-12-03T11:49:33.006Z,-1.14
2022-12-03T11:52:04.489Z,-1.16
2022-12-03T11:54:36.268Z,-1.28
2022-12-03T11:57:04.423Z,-1.41
2022-12-03T11:59:32.372Z,-1.33
2022-12-03T12:02:00.229Z,-1.26
2022-12-03T12:04:34.529Z,-1.45
2022-12-03T12:07:04.455Z,-1.36
2022-12-03T12:09:53.690Z,-1.41
2022-12-03T12:12:29.950Z,-1.32
2022-12-03T12:14:58.687Z,-1.23
2022-12-03T12:17:34.746Z,-1.34
2022-12-03T12:20:14.141Z,-1.83
2022-12-03T12:22:43.404Z,-1.49
2022-12-03T12:25:42.008Z,-1.46
2022-12-03T12:28:09.977Z,-1.57
2022-12-03T12:30:37.837Z,-1.47
2022-12-03T12:33:24.309Z,-1.46
2022-12-03T12:35:52.368Z,-1.70
2022-12-03T12:38:24.291Z,-1.36
2022-12-03T12:40:52.368Z,-1.51
2022-12-03T12:43:26.459Z,-2.04
2022-12-03T12:45:56.185Z,-1.72
2022-12-03T12:48:27.145Z,-1.81
2022-12-03T12:51:01.662Z,-1.64
2022-12-03T12:53:34.306Z,-1.68
2022-12-03T12:56:08.288Z,-1.49
2022-12-03T12:58:37.432Z,-1.54
2022-12-03T13:01:08.875Z,-1.87
2022-12-03T13:03:40.669Z,-1.89
2022-12-03T13:06:15.395Z,-1.57
2022-12-03T13:08:47.003Z,-1.79
2022-12-03T13:11:34.476Z,-1.76
2022-12-03T13:14:06.773Z,-1.65
2022-12-03T13:16:35.661Z,-1.66
2022-12-03T13:19:04.112Z,-1.70
2022-12-03T13:21:38.722Z,-1.92
2022-12-03T13:24:28.198Z,-1.72
2022-12-03T13:26:56.798Z,-2.26
2022-12-03T13:29:26.447Z,-1.73
2022-12-03T13:31:56.319Z,-1.65
2022-12-03T13:34:25.725Z,-1.77
2022-12-03T13:36:57.985Z,-2.15
2022-12-03T13:39:32.536Z,-1.87
2022-12-03T13:42:31.688Z,-1.90
2022-12-03T13:45:00.035Z,-1.81
2022-12-03T13:47:28.139Z,-2.33
2022-12-03T13:49:58.071Z,-1.93
2022-12-03T13:52:27.499Z,-2.17
2022-12-03T13:54:58.331Z,-2.36
2022-12-03T13:57:27.023Z,-2.12
2022-12-03T13:59:55.609Z,-2.29
2022-12-03T14:02:24.000Z,-2.30
2022-12-03T14:04:56.831Z,-1.99
2022-12-03T14:07:28.216Z,-1.91
2022-12-03T14:09:57.745Z,-1.85
2022-12-03T14:12:33.824Z,-2.57
2022-12-03T14:15:02.371Z,-2.07
2022-12-03T14:17:30.847Z,-1.88
2022-12-03T14:20:00.682Z,-1.95
2022-12-03T14:22:28.745Z,-2.17
2022-12-03T14:24:58.557Z,-2.25
2022-12-03T14:27:27.708Z,-2.14
2022-12-03T14:29:56.104Z,-2.02
2022-12-03T14:32:24.582Z,-1.98
2022-12-03T14:34:52.952Z,-2.11
2022-12-03T14:37:20.969Z,-2.11
2022-12-03T14:39:48.861Z,-2.21
2022-12-03T14:42:18.506Z,-1.92
2022-12-03T14:44:48.176Z,-1.99
2022-12-03T14:47:17.887Z,-2.03
2022-12-03T14:49:46.021Z,-2.22
2022-12-03T14:52:14.046Z,-2.17
2022-12-03T14:54:43.000Z,-2.40
2022-12-03T14:57:12.775Z,-2.23
2022-12-03T14:59:42.995Z,-2.64
2022-12-03T15:02:12.056Z,-2.22
2022-12-03T15:04:40.751Z,-2.38
2022-12-03T15:07:09.961Z,-2.09
2022-12-03T15:09:38.066Z,-2.42
2022-12-03T15:12:07.428Z,-2.20
2022-12-03T15:14:35.532Z,-2.42
2022-12-03T15:17:04.949Z,-2.45
2022-12-03T15:19:32.993Z,-2.14
2022-12-03T15:22:01.058Z,-2.18
2022-12-03T15:24:48.979Z,-2.31
2022-12-03T15:27:16.946Z,-2.26
2022-12-03T15:29:44.839Z,-2.23
2022-12-03T15:32:14.328Z,-2.46
2022-12-03T15:34:42.376Z,-2.49
2022-12-03T15:37:10.302Z,-2.71
2022-12-03T15:39:40.356Z,-2.51
2022-12-03T15:42:13.114Z,-2.45
2022-12-03T15:44:41.357Z,-2.35
2022-12-03T15:47:10.427Z,-2.59
2022-12-03T15:49:39.936Z,-2.53
2022-12-03T15:52:08.289Z,-2.86
2022-12-03T15:54:36.206Z,-2.71
2022-12-03T15:57:04.314Z,-2.67
2022-12-03T15:59:32.415Z,-2.42
2022-12-03T16:02:00.386Z,-2.35
2022-12-03T16:04:28.551Z,-2.62
2022-12-03T16:06:58.222Z,-2.55
2022-12-03T16:09:27.628Z,-2.53
2022-12-03T16:11:55.890Z,-2.45
2022-12-03T16:14:23.958Z,-2.83
2022-12-03T16:16:52.060Z,-2.56
2022-12-03T16:19:23.252Z,-2.45
2022-12-03T16:21:51.287Z,-2.83
2022-12-03T16:24:20.806Z,-2.34
2022-12-03T16:26:48.831Z,-2.77
2022-12-03T16:29:16.804Z,-2.23
2022-12-03T16:31:45.882Z,-2.64
2022-12-03T16:34:14.128Z,-2.57
2022-12-03T16:36:42.262Z,-2.58
2022-12-03T16:39:10.194Z,-2.74
2022-12-03T16:41:39.571Z,-2.32
2022-12-03T16:44:08.004Z,-2.25
2022-12-03T16:46:35.918Z,-2.16
2022-12-03T16:49:04.197Z,-2.42
2022-12-03T16:51:32.157Z,-2.45
2022-12-03T16:54:00.099Z,-2.59
2022-12-03T16:56:28.150Z,-2.44
2022-12-03T16:58:57.563Z,-2.25
2022-12-03T17:01:25.583Z,-2.45
2022-12-03T17:03:53.600Z,-2.32
2022-12-03T17:06:21.606Z,-2.40
2022-12-03T17:08:50.137Z,-2.09
2022-12-03T17:11:19.106Z,-2.25
2022-12-03T17:13:47.504Z,-2.26
2022-12-03T17:16:17.040Z,-2.49
2022-12-03T17:18:45.254Z,-2.55
2022-12-03T17:21:13.413Z,-2.83
2022-12-03T17:23:41.662Z,-2.56
2022-12-03T17:26:09.725Z,-2.44
2022-12-03T17:28:37.785Z,-2.19
2022-12-03T17:31:06.189Z,-2.18
2022-12-03T17:33:35.696Z,-2.14
2022-12-03T17:36:03.883Z,-2.27
2022-12-03T17:38:38.640Z,-1.88
2022-12-03T17:41:08.072Z,-2.18
2022-12-03T17:43:36.181Z,-2.46
2022-12-03T17:46:05.228Z,-2.36
2022-12-03T17:48:33.457Z,-2.35
2022-12-03T17:51:03.185Z,-2.49
2022-12-03T17:53:31.141Z,-2.12
2022-12-03T17:55:59.283Z,-2.04
2022-12-03T17:58:27.817Z,-2.16
2022-12-03T18:01:01.853Z,-2.06
2022-12-03T18:03:31.077Z,-2.30
2022-12-03T18:05:59.074Z,-2.22
2022-12-03T18:08:28.475Z,-2.29
2022-12-03T18:10:56.785Z,-2.11
2022-12-03T18:13:24.870Z,-2.53
2022-12-03T18:16:08.804Z,-1.98
2022-12-03T18:18:36.982Z,-2.34
2022-12-03T18:21:05.269Z,-2.04
2022-12-03T18:23:35.686Z,-2.24
2022-12-03T18:26:03.884Z,-2.46
2022-12-03T18:28:31.971Z,-1.98
2022-12-03T18:31:01.019Z,-1.95
2022-12-03T18:33:29.165Z,-2.07
2022-12-03T18:35:58.957Z,-2.14
2022-12-03T18:38:30.584Z,-1.96
2022-12-03T18:41:00.340Z,-1.96
2022-12-03T18:43:29.186Z,-2.22
2022-12-03T18:45:57.273Z,-2.10
2022-12-03T18:48:26.332Z,-2.30
2022-12-03T18:50:54.885Z,-1.90
2022-12-03T18:53:23.123Z,-2.46
2022-12-03T18:55:51.100Z,-2.32
2022-12-03T18:58:20.485Z,-2.34
2022-12-03T19:00:48.641Z,-2.50
2022-12-03T19:03:16.761Z,-2.33
2022-12-03T19:05:44.858Z,-2.31
2022-12-03T19:08:15.553Z,-2.33
2022-12-03T19:10:44.247Z,-2.23
2022-12-03T19:13:12.870Z,-2.25
2022-12-03T19:15:42.414Z,-2.15
2022-12-03T19:18:10.573Z,-2.32
2022-12-03T19:20:41.679Z,-2.48
2022-12-03T19:23:09.906Z,-1.92
2022-12-03T19:25:37.971Z,-2.11
2022-12-03T19:28:06.219Z,-2.39
2022-12-03T19:30:34.190Z,-2.16
2022-12-03T19:33:03.637Z,-2.32
2022-12-03T19:35:32.760Z,-2.09
2022-12-03T19:38:00.839Z,-2.43
2022-12-03T19:40:28.881Z,-2.36
2022-12-03T19:42:56.861Z,-2.48
2022-12-03T19:45:25.335Z,-2.55
2022-12-03T19:47:53.506Z,-2.40
2022-12-03T19:50:23.644Z,-2.53
2022-12-03T19:52:51.997Z,-2.37
2022-12-03T19:55:20.654Z,-2.62
2022-12-03T19:57:48.954Z,-2.50
2022-12-03T20:00:17.893Z,-2.46
2022-12-03T20:02:46.044Z,-2.33
2022-12-03T20:05:14.257Z,-2.60
2022-12-03T20:07:43.794Z,-2.46
2022-12-03T20:10:12.306Z,-2.79
2022-12-03T20:12:40.288Z,-1.98
2022-12-03T20:15:08.924Z,-1.99
2022-12-03T20:17:37.173Z,-2.23
2022-12-03T20:20:06.262Z,-2.04
2022-12-03T20:22:34.361Z,-2.37
2022-12-03T20:25:03.899Z,-2.15
2022-12-03T20:27:32.714Z,-2.18
2022-12-03T20:30:00.866Z,-2.31
2022-12-03T20:32:28.885Z,-2.24
2022-12-03T20:34:57.160Z,-2.32
2022-12-03T20:37:25.166Z,-2.40
2022-12-03T20:39:54.101Z,-2.46
2022-12-03T20:42:24.120Z,-2.36
2022-12-03T20:44:55.222Z,-2.18
2022-12-03T20:47:23.401Z,-2.48
2022-12-03T20:49:51.450Z,-2.13
2022-12-03T20:52:19.450Z,-2.18
2022-12-03T20:54:47.466Z,-2.03
2022-12-03T20:57:15.591Z,-2.37
2022-12-03T20:59:45.113Z,-2.41
2022-12-03T21:02:16.290Z,-2.19
2022-12-03T21:04:44.471Z,-2.27
2022-12-03T21:07:12.541Z,-2.06
2022-12-03T21:09:40.684Z,-2.09
2022-12-03T21:12:26.169Z,-1.88
2022-12-03T21:14:55.784Z,-1.81
2022-12-03T21:17:23.775Z,-2.26
2022-12-03T21:19:52.074Z,-1.93
2022-12-03T21:22:20.354Z,-2.17
2022-12-03T21:24:48.384Z,-2.23
2022-12-03T21:27:21.549Z,-2.06
2022-12-03T21:29:50.225Z,-2.17
2022-12-03T21:32:19.665Z,-2.21
2022-12-03T21:34:47.630Z,-2.35
2022-12-03T21:37:15.751Z,-1.80
2022-12-03T21:39:43.952Z,-2.07
2022-12-03T21:42:34.054Z,-2.36
2022-12-03T21:45:00.236Z,-2.09
2022-12-03T21:47:35.115Z,-2.28
2022-12-03T21:50:06.348Z,-2.40
2022-12-03T21:52:35.035Z,-2.02
2022-12-03T21:55:03.249Z,-1.78
2022-12-03T21:57:31.479Z,-2.29
2022-12-03T21:59:59.825Z,-2.16
2022-12-03T22:02:29.264Z,-2.40
2022-12-03T22:04:57.937Z,-2.19
2022-12-03T22:07:26.030Z,-2.46
2022-12-03T22:09:54.243Z,-2.20
2022-12-03T22:12:22.570Z,-2.06
2022-12-03T22:14:50.730Z,-2.20
2022-12-03T22:17:18.701Z,-2.17
2022-12-03T22:19:48.219Z,-2.31
2022-12-03T22:22:16.278Z,-2.26
2022-12-03T22:24:45.736Z,-2.18
2022-12-03T22:27:14.414Z,-2.26
2022-12-03T22:29:42.493Z,-1.65
2022-12-03T22:32:10.497Z,-2.14
2022-12-03T22:34:40.927Z,-2.05
2022-12-03T22:37:10.389Z,-2.06
2022-12-03T22:39:38.429Z,-2.05
2022-12-03T22:42:06.591Z,-2.44
2022-12-03T22:44:34.657Z,-2.14
2022-12-03T22:47:02.556Z,-2.29
2022-12-03T22:49:30.714Z,-2.52
2022-12-03T22:51:58.820Z,-2.61
2022-12-03T22:54:28.141Z,-2.45
2022-12-03T22:56:58.201Z,-1.93
2022-12-03T22:59:26.305Z,-1.99
2022-12-03T23:01:54.175Z,-1.95
2022-12-03T23:04:31.590Z,-2.23
2022-12-03T23:06:59.475Z,-2.30
2022-12-03T23:09:28.917Z,-2.46
2022-12-03T23:11:57.127Z,-1.92
2022-12-03T23:14:25.085Z,-1.81
2022-12-03T23:16:53.117Z,-2.12
2022-12-03T23:19:21.265Z,-1.96
2022-12-03T23:21:49.247Z,-2.20
2022-12-03T23:24:17.348Z,-2.40
2022-12-03T23:26:46.953Z,-2.03
2022-12-03T23:29:15.680Z,-1.74
2022-12-03T23:31:43.736Z,-2.01
2022-12-03T23:34:11.955Z,-1.83
2022-12-03T23:36:39.914Z,-1.76
2022-12-03T23:39:08.202Z,-1.76
2022-12-03T23:41:36.275Z,-1.84
2022-12-03T23:44:05.669Z,-1.81
2022-12-03T23:46:33.855Z,-2.04
2022-12-03T23:49:02.053Z,-1.86
2022-12-03T23:51:30.058Z,-2.04
2022-12-03T23:53:58.431Z,-2.00
2022-12-03T23:56:28.387Z,-2.30
2022-12-03T23:58:57.214Z,-2.25
